sensor_id;sensor_type;location;lat;lon;timestamp;temperature;humidity
15259;DHT22;34462;51.368;12.364;2023-05-02T00:00:45;12.00;99.90
15259;DHT22;34462;51.368;12.364;2023-05-02T00:03:13;12.00;99.90
15259;DHT22;34462;51.368;12.364;2023-05-02T00:05:43;11.90;99.90
15259;DHT22;34462;51.368;12.364;2023-05-02T00:08:11;11.90;99.90
15259;DHT22;34462;51.368;12.364;2023-05-02T00:10:39;11.80;99.90
15259;DHT22;34462;51.368;12.364;2023-05-02T00:13:09;11.70;99.90
15259;DHT22;34462;51.368;12.364;2023-05-02T00:15:37;11.70;99.90
15259;DHT22;34462;51.368;12.364;2023-05-02T00:18:06;11.70;99.90
15259;DHT22;34462;51.368;12.364;2023-05-02T00:20:34;11.70;99.90
15259;DHT22;34462;51.368;12.364;2023-05-02T00:23:02;11.70;99.90
15259;DHT22;34462;51.368;12.364;2023-05-02T00:25:30;11.60;99.90
15259;DHT22;34462;51.368;12.364;2023-05-02T00:27:58;11.60;99.90
15259;DHT22;34462;51.368;12.364;2023-05-02T00:30:28;11.50;99.90
15259;DHT22;34462;51.368;12.364;2023-05-02T00:32:56;11.50;99.90
15259;DHT22;34462;51.368;12.364;2023-05-02T00:35:24;11.40;99.90
15259;DHT22;34462;51.368;12.364;2023-05-02T00:37:52;11.40;99.90
15259;DHT22;34462;51.368;12.364;2023-05-02T00:40:20;11.30;99.90
15259;DHT22;34462;51.368;12.364;2023-05-02T00:42:48;11.20;99.90
15259;DHT22;34462;51.368;12.364;2023-05-02T00:45:17;11.20;99.90
15259;DHT22;34462;51.368;12.364;2023-05-02T00:47:46;11.10;99.90
15259;DHT22;34462;51.368;12.364;2023-05-02T00:50:16;11.00;99.90
15259;DHT22;34462;51.368;12.364;2023-05-02T00:52:46;11.00;99.90
15259;DHT22;34462;51.368;12.364;2023-05-02T00:55:15;11.00;99.90
15259;DHT22;34462;51.368;12.364;2023-05-02T00:57:44;10.90;99.90
15259;DHT22;34462;51.368;12.364;2023-05-02T01:00:12;10.90;99.90
15259;DHT22;34462;51.368;12.364;2023-05-02T01:02:49;10.90;99.90
15259;DHT22;34462;51.368;12.364;2023-05-02T01:05:26;10.80;99.90
15259;DHT22;34462;51.368;12.364;2023-05-02T01:08:07;10.80;99.90
15259;DHT22;34462;51.368;12.364;2023-05-02T01:10:47;10.70;99.90
15259;DHT22;34462;51.368;12.364;2023-05-02T01:13:21;10.70;99.90
15259;DHT22;34462;51.368;12.364;2023-05-02T01:15:53;10.60;99.90
15259;DHT22;34462;51.368;12.364;2023-05-02T01:18:29;10.60;99.90
15259;DHT22;34462;51.368;12.364;2023-05-02T01:21:02;10.60;99.90
15259;DHT22;34462;51.368;12.364;2023-05-02T01:23:40;10.60;99.90
15259;DHT22;34462;51.368;12.364;2023-05-02T01:26:16;10.60;99.90
15259;DHT22;34462;51.368;12.364;2023-05-02T01:28:58;10.50;99.90
15259;DHT22;34462;51.368;12.364;2023-05-02T01:31:31;10.50;99.90
15259;DHT22;34462;51.368;12.364;2023-05-02T01:34:04;10.50;99.90
15259;DHT22;34462;51.368;12.364;2023-05-02T01:36:37;10.50;99.90
15259;DHT22;34462;51.368;12.364;2023-05-02T01:39:10;10.50;99.90
15259;DHT22;34462;51.368;12.364;2023-05-02T01:41:42;10.50;99.90
15259;DHT22;34462;51.368;12.364;2023-05-02T01:44:15;10.60;99.90
15259;DHT22;34462;51.368;12.364;2023-05-02T01:46:45;10.60;99.90
15259;DHT22;34462;51.368;12.364;2023-05-02T01:49:15;10.60;99.90
15259;DHT22;34462;51.368;12.364;2023-05-02T01:51:48;10.60;99.90
15259;DHT22;34462;51.368;12.364;2023-05-02T01:54:21;10.70;99.90
15259;DHT22;34462;51.368;12.364;2023-05-02T01:56:52;10.70;99.90
15259;DHT22;34462;51.368;12.364;2023-05-02T01:59:23;10.60;99.90
15259;DHT22;34462;51.368;12.364;2023-05-02T02:01:53;10.60;99.90
15259;DHT22;34462;51.368;12.364;2023-05-02T02:04:24;10.50;99.90
15259;DHT22;34462;51.368;12.364;2023-05-02T02:06:57;10.50;99.90
15259;DHT22;34462;51.368;12.364;2023-05-02T02:09:30;10.50;99.90
15259;DHT22;34462;51.368;12.364;2023-05-02T02:12:01;10.50;99.90
15259;DHT22;34462;51.368;12.364;2023-05-02T02:14:37;10.50;99.90
15259;DHT22;34462;51.368;12.364;2023-05-02T02:17:12;10.60;99.90
15259;DHT22;34462;51.368;12.364;2023-05-02T02:19:45;10.60;99.90
15259;DHT22;34462;51.368;12.364;2023-05-02T02:22:14;10.60;99.90
15259;DHT22;34462;51.368;12.364;2023-05-02T02:24:47;10.70;99.90
15259;DHT22;34462;51.368;12.364;2023-05-02T02:27:20;10.70;99.90
15259;DHT22;34462;51.368;12.364;2023-05-02T02:29:49;10.70;99.90
15259;DHT22;34462;51.368;12.364;2023-05-02T02:32:18;10.80;99.90
15259;DHT22;34462;51.368;12.364;2023-05-02T02:34:47;10.80;99.90
15259;DHT22;34462;51.368;12.364;2023-05-02T02:37:18;10.80;99.90
15259;DHT22;34462;51.368;12.364;2023-05-02T02:39:56;10.90;99.90
15259;DHT22;34462;51.368;12.364;2023-05-02T02:42:35;10.90;99.90
15259;DHT22;34462;51.368;12.364;2023-05-02T02:45:18;10.90;99.90
15259;DHT22;34462;51.368;12.364;2023-05-02T02:48:04;11.00;99.90
15259;DHT22;34462;51.368;12.364;2023-05-02T02:50:55;11.00;99.90
15259;DHT22;34462;51.368;12.364;2023-05-02T02:53:34;11.10;99.90
15259;DHT22;34462;51.368;12.364;2023-05-02T02:56:16;11.00;99.90
15259;DHT22;34462;51.368;12.364;2023-05-02T02:58:56;11.10;99.90
15259;DHT22;34462;51.368;12.364;2023-05-02T03:01:30;11.00;99.90
15259;DHT22;34462;51.368;12.364;2023-05-02T03:04:01;11.10;99.90
15259;DHT22;34462;51.368;12.364;2023-05-02T03:06:32;11.00;99.90
15259;DHT22;34462;51.368;12.364;2023-05-02T03:09:01;11.10;99.90
15259;DHT22;34462;51.368;12.364;2023-05-02T03:11:30;11.00;99.90
15259;DHT22;34462;51.368;12.364;2023-05-02T03:13:58;11.10;99.90
15259;DHT22;34462;51.368;12.364;2023-05-02T03:16:35;11.10;99.90
15259;DHT22;34462;51.368;12.364;2023-05-02T03:19:05;11.10;99.90
15259;DHT22;34462;51.368;12.364;2023-05-02T03:21:34;11.10;99.90
15259;DHT22;34462;51.368;12.364;2023-05-02T03:24:04;11.10;99.90
15259;DHT22;34462;51.368;12.364;2023-05-02T03:26:32;11.10;99.90
15259;DHT22;34462;51.368;12.364;2023-05-02T03:29:00;11.10;99.90
15259;DHT22;34462;51.368;12.364;2023-05-02T03:31:28;11.10;99.90
15259;DHT22;34462;51.368;12.364;2023-05-02T03:33:58;11.10;99.90
15259;DHT22;34462;51.368;12.364;2023-05-02T03:36:26;11.10;99.90
15259;DHT22;34462;51.368;12.364;2023-05-02T03:38:54;11.10;99.90
15259;DHT22;34462;51.368;12.364;2023-05-02T03:41:22;11.10;99.90
15259;DHT22;34462;51.368;12.364;2023-05-02T03:43:51;11.10;99.90
15259;DHT22;34462;51.368;12.364;2023-05-02T03:46:20;11.10;99.90
15259;DHT22;34462;51.368;12.364;2023-05-02T03:48:48;11.10;99.90
15259;DHT22;34462;51.368;12.364;2023-05-02T03:51:17;11.10;99.90
15259;DHT22;34462;51.368;12.364;2023-05-02T03:53:45;11.10;99.90
15259;DHT22;34462;51.368;12.364;2023-05-02T03:56:16;11.10;99.90
15259;DHT22;34462;51.368;12.364;2023-05-02T03:58:47;11.10;99.90
15259;DHT22;34462;51.368;12.364;2023-05-02T04:01:16;11.10;99.90
15259;DHT22;34462;51.368;12.364;2023-05-02T04:03:44;11.10;99.90
15259;DHT22;34462;51.368;12.364;2023-05-02T04:06:12;11.10;99.90
15259;DHT22;34462;51.368;12.364;2023-05-02T04:08:42;11.20;99.90
15259;DHT22;34462;51.368;12.364;2023-05-02T04:11:10;11.20;99.90
15259;DHT22;34462;51.368;12.364;2023-05-02T04:13:38;11.20;99.90
15259;DHT22;34462;51.368;12.364;2023-05-02T04:16:07;11.10;99.90
15259;DHT22;34462;51.368;12.364;2023-05-02T04:18:35;11.20;99.90
15259;DHT22;34462;51.368;12.364;2023-05-02T04:21:04;11.20;99.90
15259;DHT22;34462;51.368;12.364;2023-05-02T04:23:35;11.20;99.90
15259;DHT22;34462;51.368;12.364;2023-05-02T04:26:04;11.30;99.90
15259;DHT22;34462;51.368;12.364;2023-05-02T04:28:34;11.30;99.90
15259;DHT22;34462;51.368;12.364;2023-05-02T04:31:02;11.30;99.90
15259;DHT22;34462;51.368;12.364;2023-05-02T04:33:31;11.40;99.90
15259;DHT22;34462;51.368;12.364;2023-05-02T04:35:59;11.40;99.90
15259;DHT22;34462;51.368;12.364;2023-05-02T04:38:27;11.40;99.90
15259;DHT22;34462;51.368;12.364;2023-05-02T04:40:55;11.40;99.90
15259;DHT22;34462;51.368;12.364;2023-05-02T04:43:24;11.40;99.90
15259;DHT22;34462;51.368;12.364;2023-05-02T04:45:53;11.40;99.90
15259;DHT22;34462;51.368;12.364;2023-05-02T04:48:21;11.50;99.90
15259;DHT22;34462;51.368;12.364;2023-05-02T04:50:51;11.50;99.90
15259;DHT22;34462;51.368;12.364;2023-05-02T04:53:20;11.50;99.90
15259;DHT22;34462;51.368;12.364;2023-05-02T04:55:49;11.60;99.90
15259;DHT22;34462;51.368;12.364;2023-05-02T04:58:17;11.60;99.90
15259;DHT22;34462;51.368;12.364;2023-05-02T05:00:47;11.60;99.90
15259;DHT22;34462;51.368;12.364;2023-05-02T05:03:15;11.70;99.90
15259;DHT22;34462;51.368;12.364;2023-05-02T05:05:43;11.80;99.90
15259;DHT22;34462;51.368;12.364;2023-05-02T05:08:12;11.80;99.90
15259;DHT22;34462;51.368;12.364;2023-05-02T05:10:40;11.90;99.90
15259;DHT22;34462;51.368;12.364;2023-05-02T05:13:08;12.00;99.90
15259;DHT22;34462;51.368;12.364;2023-05-02T05:15:38;12.00;99.90
15259;DHT22;34462;51.368;12.364;2023-05-02T05:18:08;12.10;99.90
15259;DHT22;34462;51.368;12.364;2023-05-02T05:20:37;12.10;99.90
15259;DHT22;34462;51.368;12.364;2023-05-02T05:23:05;12.10;99.90
15259;DHT22;34462;51.368;12.364;2023-05-02T05:25:33;12.20;99.90
15259;DHT22;34462;51.368;12.364;2023-05-02T05:28:01;12.20;99.90
15259;DHT22;34462;51.368;12.364;2023-05-02T05:30:29;12.30;99.90
15259;DHT22;34462;51.368;12.364;2023-05-02T05:32:57;12.30;99.90
15259;DHT22;34462;51.368;12.364;2023-05-02T05:35:27;12.30;99.90
15259;DHT22;34462;51.368;12.364;2023-05-02T05:37:55;12.30;99.90
15259;DHT22;34462;51.368;12.364;2023-05-02T05:40:23;12.30;99.90
15259;DHT22;34462;51.368;12.364;2023-05-02T05:42:51;12.30;99.90
15259;DHT22;34462;51.368;12.364;2023-05-02T05:45:19;12.30;99.90
15259;DHT22;34462;51.368;12.364;2023-05-02T05:47:48;12.30;99.90
15259;DHT22;34462;51.368;12.364;2023-05-02T05:50:17;12.30;99.90
15259;DHT22;34462;51.368;12.364;2023-05-02T05:52:46;12.30;99.90
15259;DHT22;34462;51.368;12.364;2023-05-02T05:55:14;12.30;99.90
15259;DHT22;34462;51.368;12.364;2023-05-02T05:57:43;12.40;99.90
15259;DHT22;34462;51.368;12.364;2023-05-02T06:00:12;12.40;99.90
15259;DHT22;34462;51.368;12.364;2023-05-02T06:02:41;12.40;99.90
15259;DHT22;34462;51.368;12.364;2023-05-02T06:05:09;12.30;99.90
15259;DHT22;34462;51.368;12.364;2023-05-02T06:07:37;12.30;99.90
15259;DHT22;34462;51.368;12.364;2023-05-02T06:10:07;12.30;99.90
15259;DHT22;34462;51.368;12.364;2023-05-02T06:12:36;12.30;99.90
15259;DHT22;34462;51.368;12.364;2023-05-02T06:15:05;12.20;99.90
15259;DHT22;34462;51.368;12.364;2023-05-02T06:17:34;12.30;99.90
15259;DHT22;34462;51.368;12.364;2023-05-02T06:20:02;12.30;99.90
15259;DHT22;34462;51.368;12.364;2023-05-02T06:22:30;12.40;99.90
15259;DHT22;34462;51.368;12.364;2023-05-02T06:24:59;12.40;99.90
15259;DHT22;34462;51.368;12.364;2023-05-02T06:27:28;12.40;99.90
15259;DHT22;34462;51.368;12.364;2023-05-02T06:29:59;12.50;99.90
15259;DHT22;34462;51.368;12.364;2023-05-02T06:32:29;12.70;99.90
15259;DHT22;34462;51.368;12.364;2023-05-02T06:34:57;12.80;99.90
15259;DHT22;34462;51.368;12.364;2023-05-02T06:37:26;12.90;99.90
15259;DHT22;34462;51.368;12.364;2023-05-02T06:39:54;13.00;99.90
15259;DHT22;34462;51.368;12.364;2023-05-02T06:42:22;13.00;99.90
15259;DHT22;34462;51.368;12.364;2023-05-02T06:44:52;13.10;99.90
15259;DHT22;34462;51.368;12.364;2023-05-02T06:47:20;13.20;99.90
15259;DHT22;34462;51.368;12.364;2023-05-02T06:49:50;13.20;99.90
15259;DHT22;34462;51.368;12.364;2023-05-02T06:52:18;13.10;99.90
15259;DHT22;34462;51.368;12.364;2023-05-02T06:54:46;13.20;99.90
15259;DHT22;34462;51.368;12.364;2023-05-02T06:57:15;13.20;99.90
15259;DHT22;34462;51.368;12.364;2023-05-02T06:59:43;13.20;99.90
15259;DHT22;34462;51.368;12.364;2023-05-02T07:02:12;13.40;99.90
15259;DHT22;34462;51.368;12.364;2023-05-02T07:04:40;13.40;99.90
15259;DHT22;34462;51.368;12.364;2023-05-02T07:07:09;13.50;99.90
15259;DHT22;34462;51.368;12.364;2023-05-02T07:09:37;13.70;99.90
15259;DHT22;34462;51.368;12.364;2023-05-02T07:12:05;13.70;99.90
15259;DHT22;34462;51.368;12.364;2023-05-02T07:14:33;13.70;99.90
15259;DHT22;34462;51.368;12.364;2023-05-02T07:17:01;13.70;99.90
15259;DHT22;34462;51.368;12.364;2023-05-02T07:19:31;13.80;99.90
15259;DHT22;34462;51.368;12.364;2023-05-02T07:21:59;13.90;99.90
15259;DHT22;34462;51.368;12.364;2023-05-02T07:24:27;14.00;99.90
15259;DHT22;34462;51.368;12.364;2023-05-02T07:26:55;14.20;99.90
15259;DHT22;34462;51.368;12.364;2023-05-02T07:29:23;14.20;99.90
15259;DHT22;34462;51.368;12.364;2023-05-02T07:31:52;14.30;99.90
15259;DHT22;34462;51.368;12.364;2023-05-02T07:34:20;14.40;99.90
15259;DHT22;34462;51.368;12.364;2023-05-02T07:36:49;14.40;99.90
15259;DHT22;34462;51.368;12.364;2023-05-02T07:39:18;14.30;99.90
15259;DHT22;34462;51.368;12.364;2023-05-02T07:41:46;14.40;99.90
15259;DHT22;34462;51.368;12.364;2023-05-02T07:44:14;14.40;99.90
15259;DHT22;34462;51.368;12.364;2023-05-02T07:46:42;14.50;99.90
15259;DHT22;34462;51.368;12.364;2023-05-02T07:49:11;14.50;99.90
15259;DHT22;34462;51.368;12.364;2023-05-02T07:51:40;14.50;99.90
15259;DHT22;34462;51.368;12.364;2023-05-02T07:54:17;14.50;99.90
15259;DHT22;34462;51.368;12.364;2023-05-02T07:56:47;14.50;99.90
15259;DHT22;34462;51.368;12.364;2023-05-02T07:59:15;14.60;99.90
15259;DHT22;34462;51.368;12.364;2023-05-02T08:01:43;14.60;99.90
15259;DHT22;34462;51.368;12.364;2023-05-02T08:04:11;14.70;99.90
15259;DHT22;34462;51.368;12.364;2023-05-02T08:06:40;14.70;99.90
15259;DHT22;34462;51.368;12.364;2023-05-02T08:09:08;14.50;99.90
15259;DHT22;34462;51.368;12.364;2023-05-02T08:11:37;14.30;99.90
15259;DHT22;34462;51.368;12.364;2023-05-02T08:14:06;14.10;99.90
15259;DHT22;34462;51.368;12.364;2023-05-02T08:16:34;13.70;99.90
15259;DHT22;34462;51.368;12.364;2023-05-02T08:19:02;13.40;99.90
15259;DHT22;34462;51.368;12.364;2023-05-02T08:21:30;13.10;99.90
15259;DHT22;34462;51.368;12.364;2023-05-02T08:23:59;12.80;99.90
15259;DHT22;34462;51.368;12.364;2023-05-02T08:26:27;12.70;99.90
15259;DHT22;34462;51.368;12.364;2023-05-02T08:28:57;12.70;99.90
15259;DHT22;34462;51.368;12.364;2023-05-02T08:31:25;12.60;99.90
15259;DHT22;34462;51.368;12.364;2023-05-02T08:33:53;12.60;99.90
15259;DHT22;34462;51.368;12.364;2023-05-02T08:36:23;12.60;99.90
15259;DHT22;34462;51.368;12.364;2023-05-02T08:38:54;12.60;99.90
15259;DHT22;34462;51.368;12.364;2023-05-02T08:41:23;12.50;99.90
15259;DHT22;34462;51.368;12.364;2023-05-02T08:43:52;12.40;99.90
15259;DHT22;34462;51.368;12.364;2023-05-02T08:46:26;12.50;99.90
15259;DHT22;34462;51.368;12.364;2023-05-02T08:48:56;12.50;99.90
15259;DHT22;34462;51.368;12.364;2023-05-02T08:51:26;12.60;99.90
15259;DHT22;34462;51.368;12.364;2023-05-02T08:53:56;12.70;99.90
15259;DHT22;34462;51.368;12.364;2023-05-02T08:56:25;12.90;99.90
15259;DHT22;34462;51.368;12.364;2023-05-02T08:58:53;13.00;99.90
15259;DHT22;34462;51.368;12.364;2023-05-02T09:01:22;13.20;99.90
15259;DHT22;34462;51.368;12.364;2023-05-02T09:03:57;13.40;99.90
15259;DHT22;34462;51.368;12.364;2023-05-02T09:06:25;13.50;99.90
15259;DHT22;34462;51.368;12.364;2023-05-02T09:08:58;13.80;99.90
15259;DHT22;34462;51.368;12.364;2023-05-02T09:11:28;14.10;99.90
15259;DHT22;34462;51.368;12.364;2023-05-02T09:13:56;14.20;99.90
15259;DHT22;34462;51.368;12.364;2023-05-02T09:16:37;14.50;99.90
15259;DHT22;34462;51.368;12.364;2023-05-02T09:19:06;14.70;99.90
15259;DHT22;34462;51.368;12.364;2023-05-02T09:21:36;15.00;99.90
15259;DHT22;34462;51.368;12.364;2023-05-02T09:24:17;15.20;99.90
15259;DHT22;34462;51.368;12.364;2023-05-02T09:26:56;15.30;99.90
15259;DHT22;34462;51.368;12.364;2023-05-02T09:29:27;15.50;99.90
15259;DHT22;34462;51.368;12.364;2023-05-02T09:32:03;15.70;99.90
15259;DHT22;34462;51.368;12.364;2023-05-02T09:34:33;15.70;99.90
15259;DHT22;34462;51.368;12.364;2023-05-02T09:37:03;15.50;99.90
15259;DHT22;34462;51.368;12.364;2023-05-02T09:39:31;15.30;99.90
15259;DHT22;34462;51.368;12.364;2023-05-02T09:42:00;14.80;99.90
15259;DHT22;34462;51.368;12.364;2023-05-02T09:44:36;14.40;99.90
15259;DHT22;34462;51.368;12.364;2023-05-02T09:47:07;14.10;99.90
15259;DHT22;34462;51.368;12.364;2023-05-02T09:49:39;13.90;99.90
15259;DHT22;34462;51.368;12.364;2023-05-02T09:52:12;13.80;99.90
15259;DHT22;34462;51.368;12.364;2023-05-02T09:54:41;13.80;99.90
15259;DHT22;34462;51.368;12.364;2023-05-02T09:57:12;13.90;99.90
15259;DHT22;34462;51.368;12.364;2023-05-02T09:59:40;14.00;99.90
15259;DHT22;34462;51.368;12.364;2023-05-02T10:02:20;14.30;99.90
15259;DHT22;34462;51.368;12.364;2023-05-02T10:04:49;14.60;99.90
15259;DHT22;34462;51.368;12.364;2023-05-02T10:07:20;14.90;99.90
15259;DHT22;34462;51.368;12.364;2023-05-02T10:09:51;15.20;99.90
15259;DHT22;34462;51.368;12.364;2023-05-02T10:12:25;15.30;99.90
15259;DHT22;34462;51.368;12.364;2023-05-02T10:15:02;15.30;99.90
15259;DHT22;34462;51.368;12.364;2023-05-02T10:17:38;15.50;99.90
15259;DHT22;34462;51.368;12.364;2023-05-02T10:20:10;15.70;99.90
15259;DHT22;34462;51.368;12.364;2023-05-02T10:22:42;16.20;99.90
15259;DHT22;34462;51.368;12.364;2023-05-02T10:25:13;16.50;99.90
15259;DHT22;34462;51.368;12.364;2023-05-02T10:27:41;16.50;99.90
15259;DHT22;34462;51.368;12.364;2023-05-02T10:30:12;16.70;99.90
15259;DHT22;34462;51.368;12.364;2023-05-02T10:32:44;16.80;99.90
15259;DHT22;34462;51.368;12.364;2023-05-02T10:35:15;16.40;99.90
15259;DHT22;34462;51.368;12.364;2023-05-02T10:37:44;16.10;99.90
15259;DHT22;34462;51.368;12.364;2023-05-02T10:40:14;16.10;99.90
15259;DHT22;34462;51.368;12.364;2023-05-02T10:42:45;16.00;99.90
15259;DHT22;34462;51.368;12.364;2023-05-02T10:45:30;16.10;99.90
15259;DHT22;34462;51.368;12.364;2023-05-02T10:48:14;16.10;99.90
15259;DHT22;34462;51.368;12.364;2023-05-02T10:50:45;16.30;99.90
15259;DHT22;34462;51.368;12.364;2023-05-02T10:53:28;16.50;99.90
15259;DHT22;34462;51.368;12.364;2023-05-02T10:58:48;16.80;99.90
15259;DHT22;34462;51.368;12.364;2023-05-02T11:01:33;16.70;99.90
15259;DHT22;34462;51.368;12.364;2023-05-02T11:04:08;16.40;99.90
15259;DHT22;34462;51.368;12.364;2023-05-02T11:09:45;16.20;99.90
15259;DHT22;34462;51.368;12.364;2023-05-02T11:12:44;16.30;99.90
15259;DHT22;34462;51.368;12.364;2023-05-02T11:15:14;16.40;99.90
15259;DHT22;34462;51.368;12.364;2023-05-02T11:18:06;16.30;99.90
15259;DHT22;34462;51.368;12.364;2023-05-02T11:20:36;16.30;99.90
15259;DHT22;34462;51.368;12.364;2023-05-02T11:23:22;16.40;99.90
15259;DHT22;34462;51.368;12.364;2023-05-02T11:25:54;16.60;99.90
15259;DHT22;34462;51.368;12.364;2023-05-02T11:28:42;16.70;99.90
15259;DHT22;34462;51.368;12.364;2023-05-02T11:34:24;17.00;99.90
15259;DHT22;34462;51.368;12.364;2023-05-02T11:36:52;16.50;99.90
15259;DHT22;34462;51.368;12.364;2023-05-02T11:39:20;15.70;99.90
15259;DHT22;34462;51.368;12.364;2023-05-02T11:41:49;15.00;99.90
15259;DHT22;34462;51.368;12.364;2023-05-02T11:44:17;14.60;99.90
15259;DHT22;34462;51.368;12.364;2023-05-02T11:46:45;14.20;99.90
15259;DHT22;34462;51.368;12.364;2023-05-02T11:49:14;13.90;99.90
15259;DHT22;34462;51.368;12.364;2023-05-02T11:51:43;13.90;99.90
15259;DHT22;34462;51.368;12.364;2023-05-02T11:54:17;13.90;99.90
15259;DHT22;34462;51.368;12.364;2023-05-02T11:56:47;13.90;99.90
15259;DHT22;34462;51.368;12.364;2023-05-02T11:59:15;13.80;99.90
15259;DHT22;34462;51.368;12.364;2023-05-02T12:01:48;13.50;99.90
15259;DHT22;34462;51.368;12.364;2023-05-02T12:04:19;13.50;99.90
15259;DHT22;34462;51.368;12.364;2023-05-02T12:06:57;13.40;99.90
15259;DHT22;34462;51.368;12.364;2023-05-02T12:09:25;13.20;99.90
15259;DHT22;34462;51.368;12.364;2023-05-02T12:11:53;13.10;99.90
15259;DHT22;34462;51.368;12.364;2023-05-02T12:14:28;13.00;99.90
15259;DHT22;34462;51.368;12.364;2023-05-02T12:16:59;12.90;99.90
15259;DHT22;34462;51.368;12.364;2023-05-02T12:19:29;12.80;99.90
15259;DHT22;34462;51.368;12.364;2023-05-02T12:21:59;12.70;99.90
15259;DHT22;34462;51.368;12.364;2023-05-02T12:24:27;12.80;99.90
15259;DHT22;34462;51.368;12.364;2023-05-02T12:27:10;13.00;99.90
15259;DHT22;34462;51.368;12.364;2023-05-02T12:29:39;13.40;99.90
15259;DHT22;34462;51.368;12.364;2023-05-02T12:32:08;13.60;99.90
15259;DHT22;34462;51.368;12.364;2023-05-02T12:34:37;14.00;99.90
15259;DHT22;34462;51.368;12.364;2023-05-02T12:37:08;14.10;99.90
15259;DHT22;34462;51.368;12.364;2023-05-02T12:39:38;14.40;99.90
15259;DHT22;34462;51.368;12.364;2023-05-02T12:42:09;14.20;99.90
15259;DHT22;34462;51.368;12.364;2023-05-02T12:44:39;14.30;99.90
15259;DHT22;34462;51.368;12.364;2023-05-02T12:47:10;14.30;99.90
15259;DHT22;34462;51.368;12.364;2023-05-02T12:49:49;14.40;99.90
15259;DHT22;34462;51.368;12.364;2023-05-02T12:52:20;14.40;99.90
15259;DHT22;34462;51.368;12.364;2023-05-02T12:55:15;14.40;99.90
15259;DHT22;34462;51.368;12.364;2023-05-02T12:57:44;14.40;99.90
15259;DHT22;34462;51.368;12.364;2023-05-02T13:00:13;14.30;99.90
15259;DHT22;34462;51.368;12.364;2023-05-02T13:02:43;14.20;99.90
15259;DHT22;34462;51.368;12.364;2023-05-02T13:05:15;14.20;99.90
15259;DHT22;34462;51.368;12.364;2023-05-02T13:07:45;14.10;99.90
15259;DHT22;34462;51.368;12.364;2023-05-02T13:10:13;14.10;99.90
15259;DHT22;34462;51.368;12.364;2023-05-02T13:12:43;13.90;99.90
15259;DHT22;34462;51.368;12.364;2023-05-02T13:15:13;13.90;99.90
15259;DHT22;34462;51.368;12.364;2023-05-02T13:17:41;13.90;99.90
15259;DHT22;34462;51.368;12.364;2023-05-02T13:20:10;13.80;99.90
15259;DHT22;34462;51.368;12.364;2023-05-02T13:22:39;13.90;99.90
15259;DHT22;34462;51.368;12.364;2023-05-02T13:25:09;13.90;99.90
15259;DHT22;34462;51.368;12.364;2023-05-02T13:27:37;13.90;99.90
15259;DHT22;34462;51.368;12.364;2023-05-02T13:30:07;13.90;99.90
15259;DHT22;34462;51.368;12.364;2023-05-02T13:32:37;13.70;99.90
15259;DHT22;34462;51.368;12.364;2023-05-02T13:35:06;13.50;99.90
15259;DHT22;34462;51.368;12.364;2023-05-02T13:37:35;13.40;99.90
15259;DHT22;34462;51.368;12.364;2023-05-02T13:40:04;13.40;99.90
15259;DHT22;34462;51.368;12.364;2023-05-02T13:42:34;13.40;99.90
15259;DHT22;34462;51.368;12.364;2023-05-02T13:45:03;13.40;99.90
15259;DHT22;34462;51.368;12.364;2023-05-02T13:47:33;13.50;99.90
15259;DHT22;34462;51.368;12.364;2023-05-02T13:50:01;13.40;99.90
15259;DHT22;34462;51.368;12.364;2023-05-02T13:52:30;13.30;99.90
15259;DHT22;34462;51.368;12.364;2023-05-02T13:54:58;13.30;99.90
15259;DHT22;34462;51.368;12.364;2023-05-02T13:57:26;13.30;99.90
15259;DHT22;34462;51.368;12.364;2023-05-02T13:59:55;13.20;99.90
15259;DHT22;34462;51.368;12.364;2023-05-02T14:02:23;13.20;99.90
15259;DHT22;34462;51.368;12.364;2023-05-02T14:04:52;13.30;99.90
15259;DHT22;34462;51.368;12.364;2023-05-02T14:07:20;13.20;99.90
15259;DHT22;34462;51.368;12.364;2023-05-02T14:09:48;13.20;99.90
15259;DHT22;34462;51.368;12.364;2023-05-02T14:12:16;13.30;99.90
15259;DHT22;34462;51.368;12.364;2023-05-02T14:14:44;13.40;99.90
15259;DHT22;34462;51.368;12.364;2023-05-02T14:17:13;13.50;99.90
15259;DHT22;34462;51.368;12.364;2023-05-02T14:19:41;13.60;99.90
15259;DHT22;34462;51.368;12.364;2023-05-02T14:22:09;13.70;99.90
15259;DHT22;34462;51.368;12.364;2023-05-02T14:24:37;13.90;99.90
15259;DHT22;34462;51.368;12.364;2023-05-02T14:27:06;14.00;99.90
15259;DHT22;34462;51.368;12.364;2023-05-02T14:29:38;14.10;99.90
15259;DHT22;34462;51.368;12.364;2023-05-02T14:32:06;14.10;99.90
15259;DHT22;34462;51.368;12.364;2023-05-02T14:34:36;14.20;99.90
15259;DHT22;34462;51.368;12.364;2023-05-02T14:37:04;14.50;99.90
15259;DHT22;34462;51.368;12.364;2023-05-02T14:39:32;14.70;99.90
15259;DHT22;34462;51.368;12.364;2023-05-02T14:42:00;14.70;99.90
15259;DHT22;34462;51.368;12.364;2023-05-02T14:44:29;14.70;99.90
15259;DHT22;34462;51.368;12.364;2023-05-02T14:46:58;14.70;99.90
15259;DHT22;34462;51.368;12.364;2023-05-02T14:49:26;14.80;99.90
15259;DHT22;34462;51.368;12.364;2023-05-02T14:51:55;14.90;99.90
15259;DHT22;34462;51.368;12.364;2023-05-02T14:54:27;15.00;99.90
15259;DHT22;34462;51.368;12.364;2023-05-02T14:56:56;15.10;99.90
15259;DHT22;34462;51.368;12.364;2023-05-02T14:59:28;14.90;99.90
15259;DHT22;34462;51.368;12.364;2023-05-02T15:01:56;14.80;99.90
15259;DHT22;34462;51.368;12.364;2023-05-02T15:04:25;14.70;99.90
15259;DHT22;34462;51.368;12.364;2023-05-02T15:06:55;14.70;99.90
15259;DHT22;34462;51.368;12.364;2023-05-02T15:09:24;14.70;99.90
15259;DHT22;34462;51.368;12.364;2023-05-02T15:11:52;14.80;99.90
15259;DHT22;34462;51.368;12.364;2023-05-02T15:14:20;14.60;99.90
15259;DHT22;34462;51.368;12.364;2023-05-02T15:16:49;14.60;99.90
15259;DHT22;34462;51.368;12.364;2023-05-02T15:19:17;14.50;99.90
15259;DHT22;34462;51.368;12.364;2023-05-02T15:21:45;14.50;99.90
15259;DHT22;34462;51.368;12.364;2023-05-02T15:24:15;14.60;99.90
15259;DHT22;34462;51.368;12.364;2023-05-02T15:26:44;14.50;99.90
15259;DHT22;34462;51.368;12.364;2023-05-02T15:29:12;14.40;99.90
15259;DHT22;34462;51.368;12.364;2023-05-02T15:31:40;14.30;99.90
15259;DHT22;34462;51.368;12.364;2023-05-02T15:34:08;14.10;99.90
15259;DHT22;34462;51.368;12.364;2023-05-02T15:36:36;14.20;99.90
15259;DHT22;34462;51.368;12.364;2023-05-02T15:39:04;14.30;99.90
15259;DHT22;34462;51.368;12.364;2023-05-02T15:41:34;14.30;99.90
15259;DHT22;34462;51.368;12.364;2023-05-02T15:44:02;14.20;99.90